Time;durP1;ratioP1;P1;durP2;ratioP2;P2;SDS_P1;SDS_P2;PMS_P1;PMS_P2;Temp;Humidity;BMP_temperature;BMP_pressure;BME280_temperature;BME280_humidity;BME280_pressure;Samples;Min_cycle;Max_cycle;Signal;HPM_P1;HPM_P2
2022/03/22 00:00:42;;;;;;;;;;;;;;;5.13;40.17;94030.94;2052128;70;20057;-71
2022/03/22 00:03:07;;;;;;;;;;;;;;;5.14;39.79;94027.63;2052449;70;20367;-72
2022/03/22 00:05:34;;;;;;;;;;;;;;;5.07;39.90;94026.25;2052222;70;20053;-72
2022/03/22 00:08:00;;;;;;;;;;;;;;;5.10;39.49;94035.59;2052463;70;20047;-72
2022/03/22 00:10:26;;;;;;;;;;;;;;;5.00;39.87;94034.56;2052393;70;20489;-72
2022/03/22 00:12:53;;;;;;;;;;;;;;;5.29;37.96;94038.94;2052348;70;20125;-72
2022/03/22 00:15:19;;;;;;;;;;;;;;;5.20;38.44;94038.66;2052181;70;20535;-72
2022/03/22 00:17:44;;;;;;;;;;;;;;;5.25;39.17;94029.41;2052295;70;20062;-73
2022/03/22 00:20:10;;;;;;;;;;;;;;;4.94;39.60;94033.94;2051681;69;20047;-74
2022/03/22 00:22:40;;;;;;;;;;;;;;;5.20;39.39;94033.09;2048660;70;20558;-72
2022/03/22 00:25:06;;;;;;;;;;;;;;;5.17;39.58;94017.41;2052041;70;20062;-72
2022/03/22 00:27:52;;;;;;;;;;;;;;;4.87;39.92;94027.00;2051899;70;20100;-72
2022/03/22 00:30:24;;;;;;;;;;;;;;;4.76;40.52;94024.44;2048296;70;20053;-72
2022/03/22 00:32:54;;;;;;;;;;;;;;;4.69;41.16;94023.06;2051675;69;20512;-72
2022/03/22 00:35:23;;;;;;;;;;;;;;;4.61;41.30;94036.16;2051769;70;20058;-72
2022/03/22 00:37:50;;;;;;;;;;;;;;;4.77;40.64;94035.06;2052219;69;20043;-72
2022/03/22 00:40:17;;;;;;;;;;;;;;;4.73;40.70;94033.91;2049056;70;20457;-72
2022/03/22 00:42:46;;;;;;;;;;;;;;;5.00;39.46;94040.16;2051978;70;20102;-73
2022/03/22 00:45:18;;;;;;;;;;;;;;;4.73;40.82;94036.69;2052023;69;20082;-72
2022/03/22 00:47:47;;;;;;;;;;;;;;;4.79;40.72;94032.47;2048811;70;20054;-74
2022/03/22 00:50:15;;;;;;;;;;;;;;;4.75;40.58;94043.22;2051809;69;20080;-73
2022/03/22 00:52:40;;;;;;;;;;;;;;;4.84;40.33;94034.38;2052068;69;20058;-73
2022/03/22 00:55:07;;;;;;;;;;;;;;;4.64;40.42;94037.13;2051909;70;20051;-72
2022/03/22 00:57:33;;;;;;;;;;;;;;;4.83;41.00;94046.84;2051999;70;20171;-72
2022/03/22 01:00:04;;;;;;;;;;;;;;;4.53;41.59;94052.06;2051874;70;20489;-72
2022/03/22 01:02:31;;;;;;;;;;;;;;;4.49;41.29;94048.84;2052223;69;20059;-73
2022/03/22 01:04:57;;;;;;;;;;;;;;;4.62;41.10;94045.28;2048449;69;20051;-72
2022/03/22 01:07:23;;;;;;;;;;;;;;;4.67;41.52;94045.16;2051747;69;20486;-73
2022/03/22 01:09:48;;;;;;;;;;;;;;;4.37;42.15;94053.16;2051601;69;20556;-73
2022/03/22 01:12:15;;;;;;;;;;;;;;;4.27;41.83;94050.06;2051745;70;20062;-74
2022/03/22 01:14:41;;;;;;;;;;;;;;;4.46;40.90;94052.72;2048583;69;20086;-73
2022/03/22 01:17:06;;;;;;;;;;;;;;;4.47;41.31;94063.34;2052113;70;20150;-74
2022/03/22 01:19:32;;;;;;;;;;;;;;;4.16;42.65;94051.03;2051703;70;20075;-73
2022/03/22 01:21:59;;;;;;;;;;;;;;;4.14;42.63;94059.19;2051692;70;20090;-72
2022/03/22 01:24:26;;;;;;;;;;;;;;;4.52;40.25;94061.72;2051799;69;20051;-73
2022/03/22 01:26:52;;;;;;;;;;;;;;;4.36;41.13;94057.25;2051949;70;20051;-73
2022/03/22 01:29:17;;;;;;;;;;;;;;;4.36;41.39;94057.25;2051791;70;20067;-73
2022/03/22 01:31:44;;;;;;;;;;;;;;;4.20;41.84;94053.50;2051722;70;20058;-73
2022/03/22 01:34:10;;;;;;;;;;;;;;;4.49;41.01;94055.19;2048484;69;20053;-74
2022/03/22 01:36:35;;;;;;;;;;;;;;;4.13;41.43;94043.75;2048393;70;20054;-73
2022/03/22 01:39:01;;;;;;;;;;;;;;;3.92;42.06;94054.03;2048557;69;20086;-73
2022/03/22 01:41:27;;;;;;;;;;;;;;;3.98;42.49;94054.66;2051521;70;20093;-73
2022/03/22 01:43:52;;;;;;;;;;;;;;;4.14;41.43;94050.06;2051432;70;20153;-73
2022/03/22 01:46:20;;;;;;;;;;;;;;;4.26;40.79;94054.13;2048519;70;20055;-74
2022/03/22 01:48:46;;;;;;;;;;;;;;;4.18;41.68;94050.50;2052317;70;20043;-73
2022/03/22 01:51:13;;;;;;;;;;;;;;;4.32;40.94;94049.94;2052215;70;20197;-74
2022/03/22 01:53:42;;;;;;;;;;;;;;;4.24;41.38;94049.09;2052301;70;20057;-73
2022/03/22 01:56:07;;;;;;;;;;;;;;;4.12;41.67;94042.22;2052257;70;20106;-73
2022/03/22 01:58:32;;;;;;;;;;;;;;;4.14;41.50;94041.72;2052244;70;20094;-73
2022/03/22 02:06:30;;;;;;;;;;;;;;;4.12;41.90;94047.06;2048838;70;20066;-74
2022/03/22 02:08:56;;;;;;;;;;;;;;;3.98;42.61;94035.91;2052141;70;20058;-74
2022/03/22 02:11:21;;;;;;;;;;;;;;;3.90;41.92;94031.53;2052232;70;20047;-74
2022/03/22 02:13:46;;;;;;;;;;;;;;;3.82;42.06;94040.53;2052039;70;20078;-74
2022/03/22 02:16:12;;;;;;;;;;;;;;;3.91;41.39;94035.81;2052096;70;20649;-74
2022/03/22 02:18:40;;;;;;;;;;;;;;;3.62;42.66;94041.16;2052122;70;20043;-73
2022/03/22 02:21:06;;;;;;;;;;;;;;;3.86;42.04;94042.25;2052204;69;20378;-74
2022/03/22 02:23:50;;;;;;;;;;;;;;;3.74;42.12;94036.88;2052076;70;20058;-73
2022/03/22 02:26:16;;;;;;;;;;;;;;;3.87;41.35;94033.34;2052165;70;20627;-74
2022/03/22 02:28:43;;;;;;;;;;;;;;;4.20;40.27;94031.19;2051967;70;20053;-73
2022/03/22 02:31:09;;;;;;;;;;;;;;;3.99;40.26;94037.44;2052174;70;20054;-74
2022/03/22 02:33:34;;;;;;;;;;;;;;;3.88;40.61;94036.88;2052043;70;20059;-74
2022/03/22 02:36:00;;;;;;;;;;;;;;;4.02;39.96;94044.69;2052063;70;20055;-74
2022/03/22 02:38:26;;;;;;;;;;;;;;;4.06;39.52;94036.75;2052196;69;20054;-74
2022/03/22 02:40:51;;;;;;;;;;;;;;;4.00;40.16;94040.97;2052049;70;20090;-73
2022/03/22 02:43:17;;;;;;;;;;;;;;;4.00;40.49;94046.53;2052213;69;20170;-74
2022/03/22 02:45:42;;;;;;;;;;;;;;;3.70;41.33;94046.81;2049199;70;20097;-74
2022/03/22 02:48:08;;;;;;;;;;;;;;;3.93;40.04;94047.16;2052625;70;20141;-73
2022/03/22 02:50:33;;;;;;;;;;;;;;;3.87;40.19;94044.50;2052698;70;20059;-74
2022/03/22 02:53:00;;;;;;;;;;;;;;;4.11;39.31;94042.78;2052586;69;20062;-73
2022/03/22 02:55:27;;;;;;;;;;;;;;;3.77;40.81;94043.41;2052608;69;20078;-73
2022/03/22 02:57:53;;;;;;;;;;;;;;;3.38;41.92;94053.19;2052637;70;20055;-73
2022/03/22 03:00:18;;;;;;;;;;;;;;;3.81;40.73;94044.59;2049142;70;20097;-73
2022/03/22 03:02:47;;;;;;;;;;;;;;;3.70;41.59;94044.03;2052593;70;20046;-73
2022/03/22 03:05:12;;;;;;;;;;;;;;;4.08;39.89;94042.56;2052740;70;20082;-74
2022/03/22 03:07:39;;;;;;;;;;;;;;;4.01;40.48;94051.56;2052547;70;20094;-74
2022/03/22 03:10:05;;;;;;;;;;;;;;;3.56;41.51;94048.84;2052573;70;20493;-74
2022/03/22 03:12:31;;;;;;;;;;;;;;;3.76;40.76;94048.25;2052514;69;20057;-74
2022/03/22 03:14:57;;;;;;;;;;;;;;;3.56;40.63;94055.16;2052412;69;20267;-73
2022/03/22 03:17:22;;;;;;;;;;;;;;;3.47;42.06;94058.34;2052517;70;20476;-74
2022/03/22 03:19:47;;;;;;;;;;;;;;;3.60;40.52;94054.84;2052622;70;20051;-74
2022/03/22 03:22:14;;;;;;;;;;;;;;;3.59;41.40;94047.78;2052584;69;20054;-74
2022/03/22 03:24:39;;;;;;;;;;;;;;;3.36;41.53;94057.78;2052507;70;20138;-73
2022/03/22 03:27:05;;;;;;;;;;;;;;;3.45;41.19;94062.97;2052555;69;20506;-73
2022/03/22 03:29:30;;;;;;;;;;;;;;;3.43;41.57;94049.56;2052351;70;20170;-73
2022/03/22 03:31:55;;;;;;;;;;;;;;;3.41;41.54;94065.31;2052553;69;20123;-73
2022/03/22 03:34:21;;;;;;;;;;;;;;;3.35;42.12;94062.63;2049301;69;20059;-73
2022/03/22 03:36:47;;;;;;;;;;;;;;;3.41;41.35;94063.25;2052477;70;20070;-74
2022/03/22 03:39:13;;;;;;;;;;;;;;;3.50;41.06;94065.63;2052474;70;20062;-74
2022/03/22 03:41:54;;;;;;;;;;;;;;;3.53;40.86;94067.38;2049150;69;20148;-74
2022/03/22 03:47:07;;;;;;;;;;;;;;;3.30;41.93;94069.78;2052412;70;20456;-74
2022/03/22 03:49:37;;;;;;;;;;;;;;;3.37;41.83;94076.75;2052423;70;20051;-74
2022/03/22 03:52:04;;;;;;;;;;;;;;;3.48;41.47;94084.16;2049290;70;20047;-74
2022/03/22 03:54:29;;;;;;;;;;;;;;;3.41;41.21;94085.53;2052407;70;20050;-74
2022/03/22 03:56:55;;;;;;;;;;;;;;;3.05;42.82;94076.72;2052293;69;20051;-75
2022/03/22 03:59:20;;;;;;;;;;;;;;;3.25;41.95;94078.97;2052360;70;20118;-74
2022/03/22 04:01:46;;;;;;;;;;;;;;;3.13;42.46;94074.84;2052424;69;20478;-74
2022/03/22 04:04:12;;;;;;;;;;;;;;;3.20;42.39;94071.44;2052442;69;20059;-74
2022/03/22 04:06:38;;;;;;;;;;;;;;;3.04;42.73;94075.22;2049123;70;20479;-73
2022/03/22 04:09:03;;;;;;;;;;;;;;;3.06;42.55;94081.00;2052411;70;20112;-73
2022/03/22 04:11:29;;;;;;;;;;;;;;;3.16;42.02;94079.38;2052387;69;20551;-74
2022/03/22 04:13:54;;;;;;;;;;;;;;;2.96;42.90;94074.34;2052274;70;20047;-74
2022/03/22 04:16:20;;;;;;;;;;;;;;;3.12;42.64;94075.38;2052370;69;20054;-74
2022/03/22 04:18:45;;;;;;;;;;;;;;;3.01;42.37;94071.47;2049286;69;20517;-74
2022/03/22 04:21:11;;;;;;;;;;;;;;;2.96;42.52;94071.56;2052422;70;20138;-74
2022/03/22 04:23:37;;;;;;;;;;;;;;;3.08;42.70;94070.13;2052432;70;20058;-74
2022/03/22 04:26:02;;;;;;;;;;;;;;;3.08;41.95;94072.16;2049261;70;20054;-74
2022/03/22 04:33:57;;;;;;;;;;;;;;;3.17;41.63;94075.28;2052490;70;20046;-73
2022/03/22 04:36:22;;;;;;;;;;;;;;;3.25;40.69;94073.41;2052457;70;20062;-75
2022/03/22 04:38:48;;;;;;;;;;;;;;;3.37;39.34;94078.78;2052435;69;20416;-75
2022/03/22 04:41:14;;;;;;;;;;;;;;;3.48;38.77;94086.94;2052517;69;20047;-74
2022/03/22 04:43:39;;;;;;;;;;;;;;;3.38;39.14;94089.38;2052531;70;20454;-74
2022/03/22 04:46:06;;;;;;;;;;;;;;;3.43;39.12;94080.19;2052596;70;20055;-73
2022/03/22 04:48:32;;;;;;;;;;;;;;;3.29;39.95;94075.84;2049099;70;20050;-73
2022/03/22 04:56:43;;;;;;;;;;;;;;;3.02;40.80;94086.91;2052488;70;20503;-73
2022/03/22 04:59:10;;;;;;;;;;;;;;;3.45;38.58;94085.97;2052229;69;20055;-73
2022/03/22 05:01:35;;;;;;;;;;;;;;;3.63;37.71;94090.00;2052490;70;20514;-73
2022/03/22 05:04:01;;;;;;;;;;;;;;;3.68;37.42;94086.34;2052567;70;20089;-73
2022/03/22 05:06:26;;;;;;;;;;;;;;;3.66;37.06;94091.69;2052307;70;20062;-73
2022/03/22 05:08:55;;;;;;;;;;;;;;;3.61;37.32;94089.00;2052189;70;20046;-74
2022/03/22 05:11:21;;;;;;;;;;;;;;;3.48;38.28;94090.50;2052386;70;20066;-73
2022/03/22 05:13:46;;;;;;;;;;;;;;;3.46;37.81;94090.25;2052298;70;20046;-73
2022/03/22 05:16:12;;;;;;;;;;;;;;;3.47;39.03;94091.00;2052327;70;20054;-74
2022/03/22 05:18:37;;;;;;;;;;;;;;;3.32;40.07;94094.28;2052454;70;20448;-74
2022/03/22 05:21:04;;;;;;;;;;;;;;;3.01;41.66;94101.31;2052345;70;20196;-74
2022/03/22 05:23:30;;;;;;;;;;;;;;;2.68;43.04;94094.94;2052439;70;20152;-75
2022/03/22 05:25:56;;;;;;;;;;;;;;;3.32;39.77;94091.50;2052437;69;20104;-75
2022/03/22 05:28:21;;;;;;;;;;;;;;;3.20;39.26;94093.69;2052287;70;20490;-74
2022/03/22 05:30:48;;;;;;;;;;;;;;;3.15;40.63;94097.31;2052159;69;20077;-74
2022/03/22 05:33:13;;;;;;;;;;;;;;;3.01;40.89;94087.41;2052267;70;20421;-74
2022/03/22 05:35:39;;;;;;;;;;;;;;;2.58;43.17;94095.84;2052227;70;20055;-73
2022/03/22 05:38:05;;;;;;;;;;;;;;;2.96;42.20;94102.16;2048973;70;20421;-74
2022/03/22 05:40:30;;;;;;;;;;;;;;;2.98;40.87;94100.38;2048958;69;20043;-75
2022/03/22 05:42:56;;;;;;;;;;;;;;;2.96;41.26;94096.59;2052379;70;20165;-75
2022/03/22 05:45:22;;;;;;;;;;;;;;;3.01;41.31;94102.06;2052117;69;20042;-74
2022/03/22 05:47:48;;;;;;;;;;;;;;;2.91;42.05;94097.44;2052352;70;20103;-74
2022/03/22 05:50:14;;;;;;;;;;;;;;;2.99;41.55;94101.13;2052397;69;20134;-74
2022/03/22 05:52:43;;;;;;;;;;;;;;;2.96;42.09;94100.13;2052364;70;20050;-75
2022/03/22 05:55:09;;;;;;;;;;;;;;;2.90;42.05;94091.13;2052431;70;20067;-75
2022/03/22 05:57:35;;;;;;;;;;;;;;;2.81;41.71;94094.28;2052251;70;20051;-75
2022/03/22 06:00:02;;;;;;;;;;;;;;;2.86;41.64;94098.25;2048838;70;20047;-74
2022/03/22 06:02:29;;;;;;;;;;;;;;;2.95;42.01;94100.66;2052235;70;20055;-74
2022/03/22 06:04:55;;;;;;;;;;;;;;;2.76;42.31;94098.63;2052413;70;20043;-74
2022/03/22 06:07:21;;;;;;;;;;;;;;;2.92;41.90;94096.88;2052193;70;20077;-74
2022/03/22 06:09:47;;;;;;;;;;;;;;;3.10;40.64;94097.41;2052285;69;20062;-73
2022/03/22 06:12:13;;;;;;;;;;;;;;;2.95;41.33;94100.66;2052177;70;20070;-73
2022/03/22 06:14:38;;;;;;;;;;;;;;;3.24;39.30;94099.72;2052089;70;20055;-74
2022/03/22 06:17:06;;;;;;;;;;;;;;;2.95;41.65;94104.19;2052291;70;20492;-75
2022/03/22 06:19:32;;;;;;;;;;;;;;;2.99;41.36;94103.91;2052582;69;20055;-74
2022/03/22 06:21:57;;;;;;;;;;;;;;;3.31;38.70;94098.34;2052640;70;20046;-74
2022/03/22 06:24:23;;;;;;;;;;;;;;;3.45;38.63;94097.13;2052790;70;20057;-75
2022/03/22 06:26:48;;;;;;;;;;;;;;;3.60;37.25;94093.84;2052709;70;20050;-75
2022/03/22 06:29:14;;;;;;;;;;;;;;;3.78;36.94;94093.00;2052518;69;20043;-73
2022/03/22 06:31:39;;;;;;;;;;;;;;;3.29;39.64;94096.09;2052740;69;20508;-73
2022/03/22 06:34:05;;;;;;;;;;;;;;;3.47;38.99;94096.56;2052666;70;20483;-73
2022/03/22 06:36:30;;;;;;;;;;;;;;;3.24;40.74;94094.13;2049478;70;20054;-73
2022/03/22 06:38:56;;;;;;;;;;;;;;;3.24;40.14;94096.94;2052666;70;20138;-74
2022/03/22 06:41:21;;;;;;;;;;;;;;;3.38;39.22;94091.41;2052648;69;20051;-74
2022/03/22 06:43:47;;;;;;;;;;;;;;;3.35;39.82;94103.63;2052539;70;20050;-72
2022/03/22 06:46:12;;;;;;;;;;;;;;;3.37;39.44;94099.00;2052633;69;20058;-73
2022/03/22 06:48:38;;;;;;;;;;;;;;;3.53;38.75;94092.44;2052724;69;20068;-73
2022/03/22 06:51:03;;;;;;;;;;;;;;;3.60;37.07;94093.84;2052594;70;20082;-74
2022/03/22 06:53:29;;;;;;;;;;;;;;;3.61;36.82;94094.56;2052658;69;20114;-74
2022/03/22 06:55:54;;;;;;;;;;;;;;;3.47;37.35;94093.78;2052754;70;20440;-75
2022/03/22 06:58:22;;;;;;;;;;;;;;;3.50;38.56;94099.06;2052623;70;20054;-74
2022/03/22 07:00:48;;;;;;;;;;;;;;;3.48;38.45;94098.84;2049142;70;20441;-75
2022/03/22 07:03:14;;;;;;;;;;;;;;;3.50;38.95;94099.06;2049315;70;20057;-75
2022/03/22 07:05:42;;;;;;;;;;;;;;;3.58;38.44;94107.53;2052513;70;20051;-74
2022/03/22 07:08:07;;;;;;;;;;;;;;;3.69;38.61;94098.25;2052615;70;20115;-74
2022/03/22 07:10:33;;;;;;;;;;;;;;;3.59;39.16;94095.13;2052706;69;20067;-74
2022/03/22 07:13:01;;;;;;;;;;;;;;;3.60;38.96;94093.09;2052693;70;20047;-74
2022/03/22 07:15:35;;;;;;;;;;;;;;;3.34;40.40;94090.97;2052463;70;20051;-74
2022/03/22 07:18:01;;;;;;;;;;;;;;;3.43;39.71;94090.56;2052578;70;20047;-74
2022/03/22 07:20:27;;;;;;;;;;;;;;;3.38;40.72;94091.41;2052566;69;20054;-74
2022/03/22 07:22:53;;;;;;;;;;;;;;;3.35;41.08;94092.50;2052545;70;20106;-74
2022/03/22 07:25:19;;;;;;;;;;;;;;;3.09;41.43;94096.66;2052605;69;20059;-75
2022/03/22 07:27:45;;;;;;;;;;;;;;;3.34;41.43;94094.50;2052602;69;20090;-74
2022/03/22 07:30:11;;;;;;;;;;;;;;;3.38;42.05;94091.41;2052377;69;20098;-74
2022/03/22 07:32:37;;;;;;;;;;;;;;;3.35;41.90;94089.69;2052666;69;20087;-75
2022/03/22 07:35:02;;;;;;;;;;;;;;;3.96;42.34;94093.47;2052490;69;20055;-75
2022/03/22 07:37:32;;;;;;;;;;;;;;;4.41;42.42;94093.38;2052480;70;20070;-75
2022/03/22 07:39:58;;;;;;;;;;;;;;;4.69;42.14;94089.28;2052598;69;20062;-75
2022/03/22 07:42:29;;;;;;;;;;;;;;;5.05;42.28;94086.72;2052504;70;20437;-75
2022/03/22 07:45:00;;;;;;;;;;;;;;;5.66;39.97;94076.13;2052302;70;20135;-75
2022/03/22 07:47:26;;;;;;;;;;;;;;;6.45;39.67;94080.44;2052519;70;20055;-74
2022/03/22 07:55:20;;;;;;;;;;;;;;;7.53;36.66;94079.53;2052571;70;20060;-75
2022/03/22 07:57:45;;;;;;;;;;;;;;;7.98;36.50;94083.69;2052445;70;20054;-74
2022/03/22 08:00:11;;;;;;;;;;;;;;;8.14;37.44;94076.75;2052372;70;20078;-75
2022/03/22 08:02:37;;;;;;;;;;;;;;;8.46;33.04;94081.06;2052718;70;20055;-74
2022/03/22 08:05:05;;;;;;;;;;;;;;;9.46;33.85;94075.06;2052473;70;20047;-75
2022/03/22 08:07:31;;;;;;;;;;;;;;;10.57;31.68;94077.41;2049185;69;20537;-76
2022/03/22 08:09:57;;;;;;;;;;;;;;;10.26;32.15;94077.69;2052653;70;20047;-77
2022/03/22 08:12:22;;;;;;;;;;;;;;;9.14;32.20;94070.91;2052439;70;20063;-78
2022/03/22 08:14:49;;;;;;;;;;;;;;;9.15;32.54;94064.72;2052510;69;20070;-78
2022/03/22 08:17:14;;;;;;;;;;;;;;;9.61;32.25;94064.47;2052609;70;20175;-76
2022/03/22 08:19:42;;;;;;;;;;;;;;;10.21;30.92;94072.28;2052459;70;20532;-77
2022/03/22 08:22:07;;;;;;;;;;;;;;;10.34;30.56;94060.75;2052481;70;20080;-77
2022/03/22 08:24:33;;;;;;;;;;;;;;;11.95;29.67;94070.81;2052619;69;20148;-77
2022/03/22 08:26:59;;;;;;;;;;;;;;;12.21;29.81;94060.81;2052503;70;20142;-77
2022/03/22 08:29:26;;;;;;;;;;;;;;;12.03;28.64;94060.16;2052400;70;20051;-75
2022/03/22 08:31:52;;;;;;;;;;;;;;;12.57;27.74;94054.38;2052448;70;20046;-77
2022/03/22 08:34:19;;;;;;;;;;;;;;;13.32;26.25;94050.69;2052390;70;20090;-76
2022/03/22 08:36:44;;;;;;;;;;;;;;;12.69;27.10;94041.16;2052462;69;20050;-77
2022/03/22 08:39:11;;;;;;;;;;;;;;;12.82;25.15;94045.59;2052444;69;20046;-77
2022/03/22 08:41:36;;;;;;;;;;;;;;;12.10;26.30;94027.50;2052326;69;20182;-77
2022/03/22 08:44:02;;;;;;;;;;;;;;;12.98;26.30;94035.50;2049045;70;20079;-76
2022/03/22 08:46:28;;;;;;;;;;;;;;;13.03;25.10;94032.97;2052399;70;20201;-77
2022/03/22 08:48:55;;;;;;;;;;;;;;;13.65;23.61;94027.53;2052393;70;20071;-76
2022/03/22 08:51:25;;;;;;;;;;;;;;;13.95;23.23;94029.66;2052365;70;20410;-76
2022/03/22 08:53:51;;;;;;;;;;;;;;;13.98;23.99;94025.63;2052309;70;20043;-76
2022/03/22 08:56:18;;;;;;;;;;;;;;;14.46;22.33;94016.13;2052404;69;20051;-77
2022/03/22 08:58:44;;;;;;;;;;;;;;;15.02;21.30;94017.69;2052272;70;20154;-77
2022/03/22 09:01:10;;;;;;;;;;;;;;;14.63;21.60;94009.50;2052346;70;20142;-76
2022/03/22 09:03:38;;;;;;;;;;;;;;;15.29;23.09;94008.06;2049096;70;20057;-76
2022/03/22 09:06:11;;;;;;;;;;;;;;;16.28;21.88;94007.88;2052477;69;20470;-75
2022/03/22 09:08:38;;;;;;;;;;;;;;;14.30;20.56;94002.97;2052610;69;20063;-77
2022/03/22 09:11:04;;;;;;;;;;;;;;;14.98;20.60;93998.34;2052282;70;20051;-75
2022/03/22 09:13:30;;;;;;;;;;;;;;;15.44;20.69;93999.84;2052307;70;20043;-73
2022/03/22 09:15:56;;;;;;;;;;;;;;;15.60;21.97;93991.63;2052145;69;20060;-76
2022/03/22 09:18:22;;;;;;;;;;;;;;;16.02;20.61;93992.78;2048974;69;20146;-76
2022/03/22 09:20:49;;;;;;;;;;;;;;;16.94;21.09;93995.41;2052312;70;20066;-77
2022/03/22 09:23:14;;;;;;;;;;;;;;;16.86;21.17;93992.09;2048980;70;20058;-77
2022/03/22 09:25:41;;;;;;;;;;;;;;;16.27;17.94;93986.50;2052270;69;20054;-76
2022/03/22 09:28:07;;;;;;;;;;;;;;;16.02;19.42;93978.59;2052315;70;20188;-76
2022/03/22 09:30:34;;;;;;;;;;;;;;;16.64;18.34;93982.97;2052195;70;20043;-77
2022/03/22 09:33:01;;;;;;;;;;;;;;;17.42;20.42;93977.53;2049006;69;20050;-75
2022/03/22 09:35:28;;;;;;;;;;;;;;;18.56;18.70;93974.34;2052369;70;20051;-76
2022/03/22 09:37:53;;;;;;;;;;;;;;;17.57;18.44;93979.03;2052265;70;20039;-76
2022/03/22 09:40:19;;;;;;;;;;;;;;;19.10;18.16;93980.59;2052272;70;20054;-76
2022/03/22 09:42:46;;;;;;;;;;;;;;;19.28;17.78;93978.66;2052329;69;20050;-77
2022/03/22 09:45:18;;;;;;;;;;;;;;;19.32;18.35;93975.25;2052085;70;20511;-77
2022/03/22 09:47:45;;;;;;;;;;;;;;;20.25;18.11;93971.09;2052362;70;20090;-77
2022/03/22 09:50:11;;;;;;;;;;;;;;;19.12;17.43;93966.44;2052277;70;20082;-76
2022/03/22 09:52:37;;;;;;;;;;;;;;;19.65;18.25;93963.28;2052207;69;20054;-77
2022/03/22 09:55:03;;;;;;;;;;;;;;;18.49;17.54;93961.88;2052573;70;20147;-77
2022/03/22 09:57:29;;;;;;;;;;;;;;;20.05;17.78;93953.75;2052827;70;20079;-74
2022/03/22 09:59:54;;;;;;;;;;;;;;;20.21;17.22;93948.03;2052622;69;20049;-74
2022/03/22 10:02:27;;;;;;;;;;;;;;;20.27;15.83;93941.84;2049468;70;20047;-74
2022/03/22 10:04:53;;;;;;;;;;;;;;;21.34;17.56;93938.50;2052730;70;20404;-75
2022/03/22 10:07:20;;;;;;;;;;;;;;;20.89;16.83;93942.38;2052828;70;20501;-75
2022/03/22 10:09:55;;;;;;;;;;;;;;;21.36;15.84;93938.59;2052876;70;20153;-75
2022/03/22 10:12:37;;;;;;;;;;;;;;;21.25;16.25;93937.41;2052645;69;20062;-74
2022/03/22 10:15:06;;;;;;;;;;;;;;;21.18;15.17;93936.44;2052597;70;20545;-75
2022/03/22 10:17:32;;;;;;;;;;;;;;;21.09;15.76;93928.91;2052822;70;20065;-75
2022/03/22 10:19:57;;;;;;;;;;;;;;;20.81;14.79;93925.59;2052737;69;20067;-75
2022/03/22 10:22:24;;;;;;;;;;;;;;;20.60;16.10;93921.13;2052804;70;20112;-74
2022/03/22 10:24:51;;;;;;;;;;;;;;;21.25;15.87;93918.09;2052740;69;20058;-74
2022/03/22 10:27:24;;;;;;;;;;;;;;;22.10;14.75;93924.97;2049378;70;20058;-74
2022/03/22 10:29:50;;;;;;;;;;;;;;;20.85;15.25;93913.56;2052549;70;20051;-75
2022/03/22 10:32:16;;;;;;;;;;;;;;;21.04;15.07;93910.09;2052670;70;20051;-75
2022/03/22 10:34:42;;;;;;;;;;;;;;;20.40;15.41;93903.81;2052592;70;20128;-75
2022/03/22 10:37:08;;;;;;;;;;;;;;;21.03;15.17;93903.63;2052664;70;20054;-75
2022/03/22 10:39:41;;;;;;;;;;;;;;;22.24;13.93;93908.31;2052647;70;20146;-74
2022/03/22 10:42:08;;;;;;;;;;;;;;;21.55;14.02;93894.97;2052656;69;20111;-74
2022/03/22 10:44:38;;;;;;;;;;;;;;;23.31;13.48;93904.81;2052503;70;20066;-73
2022/03/22 10:47:04;;;;;;;;;;;;;;;22.97;14.01;93898.69;2052650;69;20051;-73
2022/03/22 10:49:30;;;;;;;;;;;;;;;24.31;13.30;93899.97;2052681;69;20105;-74
2022/03/22 10:51:58;;;;;;;;;;;;;;;23.61;12.76;93901.47;2049289;70;20089;-73
2022/03/22 10:54:25;;;;;;;;;;;;;;;24.39;12.82;93884.38;2052491;69;20046;-73
2022/03/22 10:56:55;;;;;;;;;;;;;;;25.18;12.27;93889.38;2052597;70;20233;-74
2022/03/22 10:59:25;;;;;;;;;;;;;;;25.09;12.37;93887.72;2052481;69;20050;-73
2022/03/22 11:01:52;;;;;;;;;;;;;;;24.99;12.02;93888.16;2052498;70;20222;-74
2022/03/22 11:04:19;;;;;;;;;;;;;;;25.77;10.73;93879.28;2052819;70;20533;-71
2022/03/22 11:06:48;;;;;;;;;;;;;;;26.53;11.39;93872.22;2055169;69;20062;-73
2022/03/22 11:09:17;;;;;;;;;;;;;;;28.38;10.34;93883.19;2055567;70;20172;-73
2022/03/22 11:11:43;;;;;;;;;;;;;;;27.90;10.86;93881.06;2055557;70;20055;-73
2022/03/22 11:14:11;;;;;;;;;;;;;;;30.58;9.96;93881.47;2055497;70;20077;-72
2022/03/22 11:16:36;;;;;;;;;;;;;;;29.90;9.18;93874.53;2055220;70;20082;-72
2022/03/22 11:19:03;;;;;;;;;;;;;;;31.39;8.87;93872.25;2055625;70;20047;-73
2022/03/22 11:21:29;;;;;;;;;;;;;;;31.17;9.86;93875.13;2055248;70;20557;-73
2022/03/22 11:24:04;;;;;;;;;;;;;;;29.98;9.78;93868.06;2055471;69;20062;-73
2022/03/22 11:26:29;;;;;;;;;;;;;;;31.23;9.37;93864.22;2055268;69;20155;-72
2022/03/22 11:28:55;;;;;;;;;;;;;;;32.71;9.55;93867.69;2055395;69;20521;-73
2022/03/22 11:31:24;;;;;;;;;;;;;;;31.54;8.77;93864.97;2068232;69;20057;-72
2022/03/22 11:36:45;;;;;;;;;;;;;;;30.56;9.09;93858.94;2055814;70;20054;-73
2022/03/22 11:39:18;;;;;;;;;;;;;;;31.81;8.40;93850.41;2055818;70;20067;-72
2022/03/22 11:44:36;;;;;;;;;;;;;;;32.77;7.79;93847.25;2055950;70;20073;-73
2022/03/22 11:47:08;;;;;;;;;;;;;;;33.75;8.67;93850.25;2055141;70;20064;-73
2022/03/22 11:49:51;;;;;;;;;;;;;;;32.00;9.08;93837.31;2055461;70;20053;-74
2022/03/22 11:52:21;;;;;;;;;;;;;;;34.19;8.12;93847.69;2055286;70;20054;-74
2022/03/22 11:54:57;;;;;;;;;;;;;;;32.75;8.44;93841.41;2055231;70;20758;-73
2022/03/22 11:57:22;;;;;;;;;;;;;;;35.90;8.42;93834.34;2055441;70;20094;-73
2022/03/22 11:59:48;;;;;;;;;;;;;;;34.06;7.15;93836.13;2055099;69;20113;-72
2022/03/22 12:02:15;;;;;;;;;;;;;;;32.93;7.23;93826.75;2055308;70;20146;-73
2022/03/22 12:04:42;;;;;;;;;;;;;;;34.83;8.04;93822.09;2055305;69;20050;-72
2022/03/22 12:07:09;;;;;;;;;;;;;;;37.54;7.12;93825.91;2055062;70;20056;-72
2022/03/22 12:09:38;;;;;;;;;;;;;;;37.97;6.84;93824.88;2068071;69;20105;-75
2022/03/22 12:12:06;;;;;;;;;;;;;;;36.26;7.29;93808.81;2068248;69;20098;-74
2022/03/22 12:14:34;;;;;;;;;;;;;;;37.02;6.52;93813.16;2055106;70;20473;-74
2022/03/22 12:17:00;;;;;;;;;;;;;;;36.14;6.25;93814.91;2055032;70;20584;-75
2022/03/22 12:19:26;;;;;;;;;;;;;;;36.08;6.47;93798.16;2068089;69;20050;-74
2022/03/22 12:21:57;;;;;;;;;;;;;;;37.32;6.48;93803.66;2067708;69;20467;-75
2022/03/22 12:24:23;;;;;;;;;;;;;;;35.75;6.74;93788.50;2055202;70;20497;-76
2022/03/22 12:26:50;;;;;;;;;;;;;;;37.45;6.86;93795.31;2055379;70;20062;-76
2022/03/22 12:29:16;;;;;;;;;;;;;;;37.83;6.31;93796.53;2055378;70;20051;-76
2022/03/22 12:31:51;;;;;;;;;;;;;;;37.18;6.93;93782.72;2055343;70;20053;-77
2022/03/22 12:34:17;;;;;;;;;;;;;;;34.51;6.62;93782.31;2068371;69;20047;-77
2022/03/22 12:36:43;;;;;;;;;;;;;;;35.53;6.17;93778.63;2055264;70;20111;-75
2022/03/22 12:39:11;;;;;;;;;;;;;;;34.63;6.70;93767.50;2055259;70;20075;-76
2022/03/22 12:41:38;;;;;;;;;;;;;;;34.68;6.62;93768.19;2055149;70;20453;-79
2022/03/22 12:44:06;;;;;;;;;;;;;;;34.17;6.81;93763.69;2055127;69;20053;-76
2022/03/22 12:46:32;;;;;;;;;;;;;;;35.81;6.43;93762.03;2055310;69;20057;-75
2022/03/22 12:48:59;;;;;;;;;;;;;;;34.21;7.20;93760.72;2055229;70;20043;-76
2022/03/22 12:51:26;;;;;;;;;;;;;;;35.86;7.07;93760.47;2055168;70;20050;-79
2022/03/22 12:53:52;;;;;;;;;;;;;;;37.70;6.24;93762.38;2055242;70;20042;-77
2022/03/22 12:56:20;;;;;;;;;;;;;;;35.92;6.24;93760.34;2055412;70;20114;-75
2022/03/22 12:58:47;;;;;;;;;;;;;;;32.18;6.89;93760.06;2054796;70;20074;-74
2022/03/22 13:01:13;;;;;;;;;;;;;;;32.67;6.86;93748.94;2055318;69;20058;-75
2022/03/22 13:03:42;;;;;;;;;;;;;;;32.30;7.41;93739.59;2055423;70;20050;-75
2022/03/22 13:06:07;;;;;;;;;;;;;;;32.48;7.15;93747.56;2055004;70;20062;-76
2022/03/22 13:11:29;;;;;;;;;;;;;;;34.92;6.57;93747.38;2068113;69;20085;-76
2022/03/22 13:16:43;;;;;;;;;;;;;;;33.95;6.42;93732.56;2055084;70;20520;-76
2022/03/22 13:19:09;;;;;;;;;;;;;;;37.13;5.81;93743.94;2054951;69;20076;-76
2022/03/22 13:21:38;;;;;;;;;;;;;;;36.54;5.50;93742.31;2068017;69;20054;-76
2022/03/22 13:24:11;;;;;;;;;;;;;;;38.11;5.02;93747.34;2055180;69;20039;-75
2022/03/22 13:26:37;;;;;;;;;;;;;;;35.01;5.14;93736.28;2068128;69;20054;-75
2022/03/22 13:29:16;;;;;;;;;;;;;;;36.50;5.44;93725.53;2054647;69;20053;-76